sensor_id;sensor_type;location;lat;lon;timestamp;P1;durP1;ratioP1;P2;durP2;ratioP2
23519;SDS011;11936;50.820;4.336;2023-06-10T00:00:11;11.70;;;6.97;;
23519;SDS011;11936;50.820;4.336;2023-06-10T00:02:39;14.02;;;6.97;;
23519;SDS011;11936;50.820;4.336;2023-06-10T00:05:05;16.83;;;7.57;;
23519;SDS011;11936;50.820;4.336;2023-06-10T00:07:32;13.20;;;6.90;;
23519;SDS011;11936;50.820;4.336;2023-06-10T00:09:59;7.78;;;6.47;;
23519;SDS011;11936;50.820;4.336;2023-06-10T00:12:25;12.15;;;6.38;;
23519;SDS011;11936;50.820;4.336;2023-06-10T00:14:50;6.90;;;6.22;;
23519;SDS011;11936;50.820;4.336;2023-06-10T00:17:18;10.75;;;6.57;;
23519;SDS011;11936;50.820;4.336;2023-06-10T00:19:44;7.95;;;6.20;;
23519;SDS011;11936;50.820;4.336;2023-06-10T00:22:11;10.80;;;5.97;;
23519;SDS011;11936;50.820;4.336;2023-06-10T00:24:37;7.75;;;6.60;;
23519;SDS011;11936;50.820;4.336;2023-06-10T00:27:03;9.27;;;6.40;;
23519;SDS011;11936;50.820;4.336;2023-06-10T00:29:29;9.07;;;6.78;;
23519;SDS011;11936;50.820;4.336;2023-06-10T00:31:54;11.80;;;6.60;;
23519;SDS011;11936;50.820;4.336;2023-06-10T00:34:22;8.73;;;6.60;;
23519;SDS011;11936;50.820;4.336;2023-06-10T00:36:48;7.90;;;6.00;;
23519;SDS011;11936;50.820;4.336;2023-06-10T00:39:14;11.13;;;6.50;;
23519;SDS011;11936;50.820;4.336;2023-06-10T00:41:40;12.07;;;6.55;;
23519;SDS011;11936;50.820;4.336;2023-06-10T00:44:05;6.80;;;6.07;;
23519;SDS011;11936;50.820;4.336;2023-06-10T00:46:31;10.30;;;6.68;;
23519;SDS011;11936;50.820;4.336;2023-06-10T00:48:58;9.40;;;6.63;;
23519;SDS011;11936;50.820;4.336;2023-06-10T00:51:24;7.82;;;6.38;;
23519;SDS011;11936;50.820;4.336;2023-06-10T00:53:51;10.85;;;6.22;;
23519;SDS011;11936;50.820;4.336;2023-06-10T00:56:17;6.85;;;6.22;;
23519;SDS011;11936;50.820;4.336;2023-06-10T00:58:43;9.63;;;6.80;;
23519;SDS011;11936;50.820;4.336;2023-06-10T01:01:09;8.70;;;6.60;;
23519;SDS011;11936;50.820;4.336;2023-06-10T01:03:35;8.45;;;6.75;;
23519;SDS011;11936;50.820;4.336;2023-06-10T01:06:07;9.75;;;6.38;;
23519;SDS011;11936;50.820;4.336;2023-06-10T01:12:15;10.95;;;6.82;;
23519;SDS011;11936;50.820;4.336;2023-06-10T01:14:46;8.50;;;6.68;;
23519;SDS011;11936;50.820;4.336;2023-06-10T01:17:13;14.13;;;6.37;;
23519;SDS011;11936;50.820;4.336;2023-06-10T01:19:41;9.07;;;6.57;;
23519;SDS011;11936;50.820;4.336;2023-06-10T01:22:08;7.13;;;6.45;;
23519;SDS011;11936;50.820;4.336;2023-06-10T01:24:35;11.55;;;6.63;;
23519;SDS011;11936;50.820;4.336;2023-06-10T01:27:02;8.30;;;6.15;;
23519;SDS011;11936;50.820;4.336;2023-06-10T01:29:41;10.18;;;6.20;;
23519;SDS011;11936;50.820;4.336;2023-06-10T01:32:18;6.80;;;6.10;;
23519;SDS011;11936;50.820;4.336;2023-06-10T01:34:51;11.40;;;6.53;;
23519;SDS011;11936;50.820;4.336;2023-06-10T01:37:19;9.32;;;6.30;;
23519;SDS011;11936;50.820;4.336;2023-06-10T01:39:47;10.02;;;6.72;;
23519;SDS011;11936;50.820;4.336;2023-06-10T01:42:14;8.68;;;6.40;;
23519;SDS011;11936;50.820;4.336;2023-06-10T01:44:40;13.60;;;6.65;;
23519;SDS011;11936;50.820;4.336;2023-06-10T01:47:07;10.90;;;7.00;;
23519;SDS011;11936;50.820;4.336;2023-06-10T01:49:33;6.90;;;6.20;;
23519;SDS011;11936;50.820;4.336;2023-06-10T01:51:59;7.43;;;6.72;;
23519;SDS011;11936;50.820;4.336;2023-06-10T01:54:25;8.48;;;6.72;;
23519;SDS011;11936;50.820;4.336;2023-06-10T01:56:51;9.05;;;6.10;;
23519;SDS011;11936;50.820;4.336;2023-06-10T01:59:16;9.40;;;6.15;;
23519;SDS011;11936;50.820;4.336;2023-06-10T02:01:42;9.52;;;6.75;;
23519;SDS011;11936;50.820;4.336;2023-06-10T02:04:07;9.43;;;7.03;;
23519;SDS011;11936;50.820;4.336;2023-06-10T02:06:33;11.43;;;7.20;;
23519;SDS011;11936;50.820;4.336;2023-06-10T02:09:00;9.55;;;7.03;;
23519;SDS011;11936;50.820;4.336;2023-06-10T02:11:26;10.68;;;6.78;;
23519;SDS011;11936;50.820;4.336;2023-06-10T02:13:52;14.75;;;7.70;;
23519;SDS011;11936;50.820;4.336;2023-06-10T02:16:17;9.93;;;7.25;;
23519;SDS011;11936;50.820;4.336;2023-06-10T02:18:43;9.10;;;7.00;;
23519;SDS011;11936;50.820;4.336;2023-06-10T02:21:09;10.68;;;7.35;;
23519;SDS011;11936;50.820;4.336;2023-06-10T02:23:35;7.95;;;7.18;;
23519;SDS011;11936;50.820;4.336;2023-06-10T02:26:01;7.85;;;6.88;;
23519;SDS011;11936;50.820;4.336;2023-06-10T02:28:27;7.22;;;6.53;;
23519;SDS011;11936;50.820;4.336;2023-06-10T02:30:53;8.93;;;6.80;;
23519;SDS011;11936;50.820;4.336;2023-06-10T02:33:18;10.43;;;6.75;;
23519;SDS011;11936;50.820;4.336;2023-06-10T02:35:45;15.25;;;7.07;;
23519;SDS011;11936;50.820;4.336;2023-06-10T02:38:10;8.02;;;6.70;;
23519;SDS011;11936;50.820;4.336;2023-06-10T02:40:36;9.52;;;7.35;;
23519;SDS011;11936;50.820;4.336;2023-06-10T02:43:01;7.47;;;6.70;;
23519;SDS011;11936;50.820;4.336;2023-06-10T02:45:27;13.27;;;6.60;;
23519;SDS011;11936;50.820;4.336;2023-06-10T02:47:53;7.43;;;6.72;;
23519;SDS011;11936;50.820;4.336;2023-06-10T02:50:18;18.63;;;7.82;;
23519;SDS011;11936;50.820;4.336;2023-06-10T02:52:44;11.15;;;6.97;;
23519;SDS011;11936;50.820;4.336;2023-06-10T02:55:11;9.32;;;7.20;;
23519;SDS011;11936;50.820;4.336;2023-06-10T02:57:37;12.35;;;7.18;;
23519;SDS011;11936;50.820;4.336;2023-06-10T03:00:03;10.52;;;6.45;;
23519;SDS011;11936;50.820;4.336;2023-06-10T03:02:35;10.95;;;7.03;;
23519;SDS011;11936;50.820;4.336;2023-06-10T03:05:03;8.55;;;7.00;;
23519;SDS011;11936;50.820;4.336;2023-06-10T03:07:30;10.02;;;7.10;;
23519;SDS011;11936;50.820;4.336;2023-06-10T03:09:56;12.05;;;6.78;;
23519;SDS011;11936;50.820;4.336;2023-06-10T03:12:21;13.10;;;7.68;;
23519;SDS011;11936;50.820;4.336;2023-06-10T03:14:47;8.07;;;7.10;;
23519;SDS011;11936;50.820;4.336;2023-06-10T03:17:12;9.93;;;6.82;;
23519;SDS011;11936;50.820;4.336;2023-06-10T03:19:38;8.60;;;7.53;;
23519;SDS011;11936;50.820;4.336;2023-06-10T03:22:08;8.65;;;6.95;;
23519;SDS011;11936;50.820;4.336;2023-06-10T03:24:38;11.45;;;7.45;;
23519;SDS011;11936;50.820;4.336;2023-06-10T03:27:07;9.13;;;7.30;;
23519;SDS011;11936;50.820;4.336;2023-06-10T03:29:34;7.80;;;7.00;;
23519;SDS011;11936;50.820;4.336;2023-06-10T03:32:00;10.48;;;7.38;;
23519;SDS011;11936;50.820;4.336;2023-06-10T03:34:26;12.25;;;7.40;;
23519;SDS011;11936;50.820;4.336;2023-06-10T03:36:52;12.40;;;7.20;;
23519;SDS011;11936;50.820;4.336;2023-06-10T03:39:17;10.32;;;7.75;;
23519;SDS011;11936;50.820;4.336;2023-06-10T03:41:43;9.07;;;7.18;;
23519;SDS011;11936;50.820;4.336;2023-06-10T03:44:08;9.55;;;7.15;;
23519;SDS011;11936;50.820;4.336;2023-06-10T03:46:34;12.32;;;7.30;;
23519;SDS011;11936;50.820;4.336;2023-06-10T03:48:59;11.27;;;7.50;;
23519;SDS011;11936;50.820;4.336;2023-06-10T03:51:28;11.50;;;7.40;;
23519;SDS011;11936;50.820;4.336;2023-06-10T03:53:54;11.38;;;7.03;;
23519;SDS011;11936;50.820;4.336;2023-06-10T03:56:20;8.18;;;6.93;;
23519;SDS011;11936;50.820;4.336;2023-06-10T03:58:45;10.73;;;7.53;;
23519;SDS011;11936;50.820;4.336;2023-06-10T04:01:11;11.57;;;8.02;;
23519;SDS011;11936;50.820;4.336;2023-06-10T04:03:38;11.40;;;7.00;;
23519;SDS011;11936;50.820;4.336;2023-06-10T04:06:04;14.05;;;7.38;;
23519;SDS011;11936;50.820;4.336;2023-06-10T04:08:30;13.30;;;7.20;;
23519;SDS011;11936;50.820;4.336;2023-06-10T04:10:57;11.30;;;7.47;;
23519;SDS011;11936;50.820;4.336;2023-06-10T04:13:23;7.85;;;7.10;;
23519;SDS011;11936;50.820;4.336;2023-06-10T04:15:49;8.85;;;7.35;;
23519;SDS011;11936;50.820;4.336;2023-06-10T04:18:14;11.80;;;7.72;;
23519;SDS011;11936;50.820;4.336;2023-06-10T04:20:41;11.38;;;7.32;;
23519;SDS011;11936;50.820;4.336;2023-06-10T04:23:06;11.98;;;7.93;;
23519;SDS011;11936;50.820;4.336;2023-06-10T04:25:32;9.75;;;7.10;;
23519;SDS011;11936;50.820;4.336;2023-06-10T04:27:58;12.88;;;8.40;;
23519;SDS011;11936;50.820;4.336;2023-06-10T04:30:24;11.40;;;7.50;;
23519;SDS011;11936;50.820;4.336;2023-06-10T04:32:49;8.48;;;6.72;;
23519;SDS011;11936;50.820;4.336;2023-06-10T04:35:15;13.07;;;7.93;;
23519;SDS011;11936;50.820;4.336;2023-06-10T04:37:41;12.77;;;8.23;;
23519;SDS011;11936;50.820;4.336;2023-06-10T04:40:07;11.18;;;7.18;;
23519;SDS011;11936;50.820;4.336;2023-06-10T04:42:34;10.88;;;7.28;;
23519;SDS011;11936;50.820;4.336;2023-06-10T04:45:00;12.75;;;7.80;;
23519;SDS011;11936;50.820;4.336;2023-06-10T04:47:25;10.25;;;7.43;;
23519;SDS011;11936;50.820;4.336;2023-06-10T04:49:51;10.63;;;6.80;;
23519;SDS011;11936;50.820;4.336;2023-06-10T04:52:17;82.78;;;11.57;;
23519;SDS011;11936;50.820;4.336;2023-06-10T04:54:43;10.38;;;7.68;;
23519;SDS011;11936;50.820;4.336;2023-06-10T04:57:08;18.25;;;8.88;;
23519;SDS011;11936;50.820;4.336;2023-06-10T04:59:36;15.85;;;8.20;;
23519;SDS011;11936;50.820;4.336;2023-06-10T05:02:05;14.55;;;7.50;;
23519;SDS011;11936;50.820;4.336;2023-06-10T05:04:31;11.10;;;7.05;;
23519;SDS011;11936;50.820;4.336;2023-06-10T05:06:57;8.18;;;7.38;;
23519;SDS011;11936;50.820;4.336;2023-06-10T05:09:22;16.02;;;7.55;;
23519;SDS011;11936;50.820;4.336;2023-06-10T05:11:48;11.65;;;7.57;;
23519;SDS011;11936;50.820;4.336;2023-06-10T05:14:13;9.35;;;7.68;;
23519;SDS011;11936;50.820;4.336;2023-06-10T05:16:41;10.73;;;7.60;;
23519;SDS011;11936;50.820;4.336;2023-06-10T05:19:08;14.10;;;7.22;;
23519;SDS011;11936;50.820;4.336;2023-06-10T05:21:33;9.70;;;7.13;;
23519;SDS011;11936;50.820;4.336;2023-06-10T05:23:59;8.27;;;6.93;;
23519;SDS011;11936;50.820;4.336;2023-06-10T05:26:24;14.80;;;7.78;;
23519;SDS011;11936;50.820;4.336;2023-06-10T05:28:50;10.82;;;7.10;;
23519;SDS011;11936;50.820;4.336;2023-06-10T05:31:15;9.27;;;7.20;;
23519;SDS011;11936;50.820;4.336;2023-06-10T05:33:41;9.98;;;7.90;;
23519;SDS011;11936;50.820;4.336;2023-06-10T05:36:07;11.80;;;7.57;;
23519;SDS011;11936;50.820;4.336;2023-06-10T05:38:32;12.60;;;7.55;;
23519;SDS011;11936;50.820;4.336;2023-06-10T05:40:58;15.20;;;8.15;;
23519;SDS011;11936;50.820;4.336;2023-06-10T05:43:24;14.38;;;8.00;;
23519;SDS011;11936;50.820;4.336;2023-06-10T05:45:49;15.27;;;9.10;;
23519;SDS011;11936;50.820;4.336;2023-06-10T05:48:15;10.23;;;7.90;;
23519;SDS011;11936;50.820;4.336;2023-06-10T05:50:40;12.43;;;8.35;;
23519;SDS011;11936;50.820;4.336;2023-06-10T05:53:07;11.63;;;7.60;;
23519;SDS011;11936;50.820;4.336;2023-06-10T05:55:39;8.77;;;6.93;;
23519;SDS011;11936;50.820;4.336;2023-06-10T05:58:08;15.57;;;7.47;;
23519;SDS011;11936;50.820;4.336;2023-06-10T06:00:34;13.27;;;7.75;;
23519;SDS011;11936;50.820;4.336;2023-06-10T06:03:00;14.02;;;7.80;;
23519;SDS011;11936;50.820;4.336;2023-06-10T06:05:25;15.25;;;7.90;;
23519;SDS011;11936;50.820;4.336;2023-06-10T06:07:51;10.07;;;8.48;;
23519;SDS011;11936;50.820;4.336;2023-06-10T06:10:17;13.05;;;7.85;;
23519;SDS011;11936;50.820;4.336;2023-06-10T06:12:43;15.23;;;7.80;;
23519;SDS011;11936;50.820;4.336;2023-06-10T06:15:10;13.02;;;7.50;;
23519;SDS011;11936;50.820;4.336;2023-06-10T06:17:35;9.60;;;7.32;;
23519;SDS011;11936;50.820;4.336;2023-06-10T06:20:01;12.13;;;7.13;;
23519;SDS011;11936;50.820;4.336;2023-06-10T06:22:28;12.40;;;8.38;;
23519;SDS011;11936;50.820;4.336;2023-06-10T06:24:53;10.95;;;7.25;;
23519;SDS011;11936;50.820;4.336;2023-06-10T06:27:19;13.85;;;7.47;;
23519;SDS011;11936;50.820;4.336;2023-06-10T06:29:46;9.25;;;7.80;;
23519;SDS011;11936;50.820;4.336;2023-06-10T06:32:11;12.48;;;7.53;;
23519;SDS011;11936;50.820;4.336;2023-06-10T06:34:37;17.60;;;8.00;;
23519;SDS011;11936;50.820;4.336;2023-06-10T06:37:03;10.40;;;7.38;;
23519;SDS011;11936;50.820;4.336;2023-06-10T06:39:28;13.55;;;7.88;;
23519;SDS011;11936;50.820;4.336;2023-06-10T06:41:54;10.00;;;7.32;;
23519;SDS011;11936;50.820;4.336;2023-06-10T06:44:19;11.93;;;7.30;;
23519;SDS011;11936;50.820;4.336;2023-06-10T06:46:45;10.13;;;7.60;;
23519;SDS011;11936;50.820;4.336;2023-06-10T06:49:11;11.88;;;7.28;;
23519;SDS011;11936;50.820;4.336;2023-06-10T06:51:36;11.15;;;7.25;;
23519;SDS011;11936;50.820;4.336;2023-06-10T06:54:02;9.93;;;7.13;;
23519;SDS011;11936;50.820;4.336;2023-06-10T06:56:27;18.88;;;8.07;;
23519;SDS011;11936;50.820;4.336;2023-06-10T06:58:53;11.25;;;7.32;;
23519;SDS011;11936;50.820;4.336;2023-06-10T07:01:19;10.77;;;6.70;;
23519;SDS011;11936;50.820;4.336;2023-06-10T07:03:45;12.60;;;8.18;;
23519;SDS011;11936;50.820;4.336;2023-06-10T07:06:11;15.65;;;7.93;;
23519;SDS011;11936;50.820;4.336;2023-06-10T07:08:38;16.90;;;7.95;;
23519;SDS011;11936;50.820;4.336;2023-06-10T07:11:03;9.85;;;6.85;;
23519;SDS011;11936;50.820;4.336;2023-06-10T07:13:29;16.30;;;8.38;;
23519;SDS011;11936;50.820;4.336;2023-06-10T07:15:54;8.45;;;7.03;;
23519;SDS011;11936;50.820;4.336;2023-06-10T07:18:20;14.77;;;7.05;;
23519;SDS011;11936;50.820;4.336;2023-06-10T07:20:46;18.50;;;7.45;;
23519;SDS011;11936;50.820;4.336;2023-06-10T07:23:11;10.98;;;6.45;;
23519;SDS011;11936;50.820;4.336;2023-06-10T07:25:37;12.07;;;7.43;;
23519;SDS011;11936;50.820;4.336;2023-06-10T07:28:02;14.57;;;7.15;;
23519;SDS011;11936;50.820;4.336;2023-06-10T07:30:28;20.23;;;7.90;;
23519;SDS011;11936;50.820;4.336;2023-06-10T07:32:54;8.77;;;5.95;;
23519;SDS011;11936;50.820;4.336;2023-06-10T07:35:20;7.88;;;7.07;;
23519;SDS011;11936;50.820;4.336;2023-06-10T07:37:46;8.13;;;7.32;;
23519;SDS011;11936;50.820;4.336;2023-06-10T07:40:11;10.60;;;6.60;;
23519;SDS011;11936;50.820;4.336;2023-06-10T07:42:37;8.95;;;6.75;;
23519;SDS011;11936;50.820;4.336;2023-06-10T07:45:03;14.90;;;8.10;;
23519;SDS011;11936;50.820;4.336;2023-06-10T07:47:29;51.10;;;10.30;;
23519;SDS011;11936;50.820;4.336;2023-06-10T07:49:55;9.38;;;7.13;;
23519;SDS011;11936;50.820;4.336;2023-06-10T07:52:21;9.35;;;7.07;;
23519;SDS011;11936;50.820;4.336;2023-06-10T07:54:46;9.40;;;6.53;;
23519;SDS011;11936;50.820;4.336;2023-06-10T07:57:12;11.80;;;7.15;;
23519;SDS011;11936;50.820;4.336;2023-06-10T07:59:37;12.80;;;6.78;;
23519;SDS011;11936;50.820;4.336;2023-06-10T08:02:03;16.48;;;6.68;;
23519;SDS011;11936;50.820;4.336;2023-06-10T08:04:30;10.48;;;6.38;;
23519;SDS011;11936;50.820;4.336;2023-06-10T08:06:56;8.63;;;6.60;;
23519;SDS011;11936;50.820;4.336;2023-06-10T08:09:21;8.27;;;6.95;;
23519;SDS011;11936;50.820;4.336;2023-06-10T08:11:48;10.00;;;6.00;;
23519;SDS011;11936;50.820;4.336;2023-06-10T08:14:14;8.65;;;6.68;;
23519;SDS011;11936;50.820;4.336;2023-06-10T08:16:41;8.25;;;6.32;;
23519;SDS011;11936;50.820;4.336;2023-06-10T08:19:08;13.48;;;6.88;;
23519;SDS011;11936;50.820;4.336;2023-06-10T08:21:34;10.45;;;6.40;;
23519;SDS011;11936;50.820;4.336;2023-06-10T08:24:02;14.40;;;6.97;;
23519;SDS011;11936;50.820;4.336;2023-06-10T08:26:28;9.10;;;6.07;;
23519;SDS011;11936;50.820;4.336;2023-06-10T08:28:53;11.82;;;6.40;;
23519;SDS011;11936;50.820;4.336;2023-06-10T08:31:20;11.88;;;6.43;;
23519;SDS011;11936;50.820;4.336;2023-06-10T08:33:46;17.10;;;7.30;;
23519;SDS011;11936;50.820;4.336;2023-06-10T08:36:11;17.45;;;6.60;;
23519;SDS011;11936;50.820;4.336;2023-06-10T08:38:37;9.30;;;6.93;;
23519;SDS011;11936;50.820;4.336;2023-06-10T08:41:03;8.48;;;6.05;;
23519;SDS011;11936;50.820;4.336;2023-06-10T08:43:34;8.40;;;6.07;;
23519;SDS011;11936;50.820;4.336;2023-06-10T08:46:04;12.57;;;7.20;;
23519;SDS011;11936;50.820;4.336;2023-06-10T08:48:34;15.77;;;7.32;;
23519;SDS011;11936;50.820;4.336;2023-06-10T08:51:03;8.63;;;6.55;;
23519;SDS011;11936;50.820;4.336;2023-06-10T08:53:31;8.48;;;6.30;;
23519;SDS011;11936;50.820;4.336;2023-06-10T08:58:26;9.32;;;5.95;;
23519;SDS011;11936;50.820;4.336;2023-06-10T09:00:53;6.93;;;6.22;;
23519;SDS011;11936;50.820;4.336;2023-06-10T09:03:19;10.73;;;6.20;;
23519;SDS011;11936;50.820;4.336;2023-06-10T09:05:46;9.13;;;6.15;;
23519;SDS011;11936;50.820;4.336;2023-06-10T09:08:13;9.40;;;6.85;;
23519;SDS011;11936;50.820;4.336;2023-06-10T09:10:40;8.52;;;6.32;;
23519;SDS011;11936;50.820;4.336;2023-06-10T09:13:06;7.82;;;6.00;;
23519;SDS011;11936;50.820;4.336;2023-06-10T09:15:31;10.68;;;6.40;;
23519;SDS011;11936;50.820;4.336;2023-06-10T09:17:57;17.55;;;6.85;;
23519;SDS011;11936;50.820;4.336;2023-06-10T09:20:25;10.57;;;6.10;;
23519;SDS011;11936;50.820;4.336;2023-06-10T09:22:51;10.40;;;6.40;;
23519;SDS011;11936;50.820;4.336;2023-06-10T09:25:17;12.00;;;6.13;;
23519;SDS011;11936;50.820;4.336;2023-06-10T09:30:35;8.95;;;6.70;;
23519;SDS011;11936;50.820;4.336;2023-06-10T09:33:00;12.38;;;7.32;;
23519;SDS011;11936;50.820;4.336;2023-06-10T09:35:29;8.63;;;6.47;;
23519;SDS011;11936;50.820;4.336;2023-06-10T09:37:59;10.88;;;7.50;;
23519;SDS011;11936;50.820;4.336;2023-06-10T09:40:25;14.25;;;6.25;;
23519;SDS011;11936;50.820;4.336;2023-06-10T09:42:53;10.18;;;6.60;;
23519;SDS011;11936;50.820;4.336;2023-06-10T09:45:20;23.87;;;6.83;;
23519;SDS011;11936;50.820;4.336;2023-06-10T09:47:47;10.43;;;5.72;;
23519;SDS011;11936;50.820;4.336;2023-06-10T09:50:16;10.80;;;5.75;;
23519;SDS011;11936;50.820;4.336;2023-06-10T09:52:42;8.40;;;5.88;;
23519;SDS011;11936;50.820;4.336;2023-06-10T09:55:10;11.55;;;5.80;;
23519;SDS011;11936;50.820;4.336;2023-06-10T09:57:36;19.50;;;5.97;;
23519;SDS011;11936;50.820;4.336;2023-06-10T10:00:05;8.52;;;6.28;;
23519;SDS011;11936;50.820;4.336;2023-06-10T10:02:47;13.95;;;6.47;;
23519;SDS011;11936;50.820;4.336;2023-06-10T10:05:18;15.70;;;7.00;;
23519;SDS011;11936;50.820;4.336;2023-06-10T10:07:45;14.18;;;5.90;;
23519;SDS011;11936;50.820;4.336;2023-06-10T10:10:12;6.50;;;5.30;;
23519;SDS011;11936;50.820;4.336;2023-06-10T10:12:39;6.47;;;5.87;;
23519;SDS011;11936;50.820;4.336;2023-06-10T10:15:06;9.75;;;5.97;;
23519;SDS011;11936;50.820;4.336;2023-06-10T10:17:34;18.65;;;6.60;;
23519;SDS011;11936;50.820;4.336;2023-06-10T10:20:03;8.40;;;5.68;;
23519;SDS011;11936;50.820;4.336;2023-06-10T10:22:33;7.88;;;5.72;;
23519;SDS011;11936;50.820;4.336;2023-06-10T10:25:49;7.05;;;5.50;;
23519;SDS011;11936;50.820;4.336;2023-06-10T10:28:11;7.90;;;5.85;;
23519;SDS011;11936;50.820;4.336;2023-06-10T10:30:39;6.18;;;5.57;;
23519;SDS011;11936;50.820;4.336;2023-06-10T10:33:12;5.95;;;5.30;;
23519;SDS011;11936;50.820;4.336;2023-06-10T10:35:43;9.23;;;6.22;;
23519;SDS011;11936;50.820;4.336;2023-06-10T10:38:11;12.73;;;5.43;;
23519;SDS011;11936;50.820;4.336;2023-06-10T10:40:36;10.38;;;6.03;;
23519;SDS011;11936;50.820;4.336;2023-06-10T10:43:03;10.32;;;6.15;;
23519;SDS011;11936;50.820;4.336;2023-06-10T10:45:30;8.50;;;5.63;;
23519;SDS011;11936;50.820;4.336;2023-06-10T10:47:58;13.02;;;5.38;;
23519;SDS011;11936;50.820;4.336;2023-06-10T10:50:30;21.17;;;6.38;;
23519;SDS011;11936;50.820;4.336;2023-06-10T10:52:58;10.73;;;5.50;;
23519;SDS011;11936;50.820;4.336;2023-06-10T10:55:26;7.15;;;5.50;;
23519;SDS011;11936;50.820;4.336;2023-06-10T10:58:05;11.68;;;5.60;;
23519;SDS011;11936;50.820;4.336;2023-06-10T11:00:35;10.65;;;5.70;;
23519;SDS011;11936;50.820;4.336;2023-06-10T11:05:46;7.22;;;6.00;;
23519;SDS011;11936;50.820;4.336;2023-06-10T11:10:57;11.57;;;5.05;;
23519;SDS011;11936;50.820;4.336;2023-06-10T11:13:23;7.70;;;5.47;;
23519;SDS011;11936;50.820;4.336;2023-06-10T11:15:51;13.30;;;5.07;;
23519;SDS011;11936;50.820;4.336;2023-06-10T11:18:25;5.93;;;5.32;;
23519;SDS011;11936;50.820;4.336;2023-06-10T11:20:58;9.00;;;5.28;;
23519;SDS011;11936;50.820;4.336;2023-06-10T11:28:40;6.28;;;5.07;;
23519;SDS011;11936;50.820;4.336;2023-06-10T11:31:30;11.55;;;6.70;;
23519;SDS011;11936;50.820;4.336;2023-06-10T11:34:04;10.88;;;4.78;;
23519;SDS011;11936;50.820;4.336;2023-06-10T11:36:32;12.38;;;5.82;;
23519;SDS011;11936;50.820;4.336;2023-06-10T11:39:03;17.30;;;5.85;;
23519;SDS011;11936;50.820;4.336;2023-06-10T11:41:33;21.38;;;5.60;;
23519;SDS011;11936;50.820;4.336;2023-06-10T11:44:03;9.38;;;5.68;;
23519;SDS011;11936;50.820;4.336;2023-06-10T11:46:33;8.30;;;5.22;;
23519;SDS011;11936;50.820;4.336;2023-06-10T11:49:00;12.68;;;5.43;;
23519;SDS011;11936;50.820;4.336;2023-06-10T11:51:45;9.82;;;6.13;;
23519;SDS011;11936;50.820;4.336;2023-06-10T11:54:14;6.32;;;5.55;;
23519;SDS011;11936;50.820;4.336;2023-06-10T11:56:41;6.68;;;5.38;;
23519;SDS011;11936;50.820;4.336;2023-06-10T11:59:07;9.38;;;5.15;;
23519;SDS011;11936;50.820;4.336;2023-06-10T12:01:35;27.08;;;6.57;;
23519;SDS011;11936;50.820;4.336;2023-06-10T12:04:04;9.70;;;5.80;;
23519;SDS011;11936;50.820;4.336;2023-06-10T12:09:15;15.77;;;5.97;;
23519;SDS011;11936;50.820;4.336;2023-06-10T12:11:45;9.50;;;6.00;;
23519;SDS011;11936;50.820;4.336;2023-06-10T12:16:39;7.43;;;5.93;;
23519;SDS011;11936;50.820;4.336;2023-06-10T12:19:05;7.28;;;5.53;;
23519;SDS011;11936;50.820;4.336;2023-06-10T12:21:32;12.93;;;6.13;;
23519;SDS011;11936;50.820;4.336;2023-06-10T12:26:39;9.90;;;5.70;;
23519;SDS011;11936;50.820;4.336;2023-06-10T12:29:16;5.80;;;5.20;;
23519;SDS011;11936;50.820;4.336;2023-06-10T12:32:00;7.57;;;5.35;;
23519;SDS011;11936;50.820;4.336;2023-06-10T12:34:31;6.32;;;5.72;;
23519;SDS011;11936;50.820;4.336;2023-06-10T12:37:01;37.90;;;7.75;;
23519;SDS011;11936;50.820;4.336;2023-06-10T12:39:29;6.68;;;5.88;;
23519;SDS011;11936;50.820;4.336;2023-06-10T12:41:55;17.05;;;5.68;;
23519;SDS011;11936;50.820;4.336;2023-06-10T12:44:33;10.60;;;6.13;;
23519;SDS011;11936;50.820;4.336;2023-06-10T12:47:01;14.02;;;6.47;;
23519;SDS011;11936;50.820;4.336;2023-06-10T12:49:33;14.95;;;6.07;;
23519;SDS011;11936;50.820;4.336;2023-06-10T12:52:00;18.65;;;6.85;;
23519;SDS011;11936;50.820;4.336;2023-06-10T12:54:26;10.75;;;5.97;;
23519;SDS011;11936;50.820;4.336;2023-06-10T12:56:52;15.02;;;5.90;;
23519;SDS011;11936;50.820;4.336;2023-06-10T12:59:18;8.23;;;6.07;;
23519;SDS011;11936;50.820;4.336;2023-06-10T13:01:44;6.78;;;5.47;;
23519;SDS011;11936;50.820;4.336;2023-06-10T13:04:16;9.00;;;5.60;;
23519;SDS011;11936;50.820;4.336;2023-06-10T13:06:42;7.20;;;5.82;;
23519;SDS011;11936;50.820;4.336;2023-06-10T13:09:07;12.63;;;5.93;;
23519;SDS011;11936;50.820;4.336;2023-06-10T13:11:33;15.77;;;6.28;;
23519;SDS011;11936;50.820;4.336;2023-06-10T13:13:59;8.07;;;5.72;;
23519;SDS011;11936;50.820;4.336;2023-06-10T13:16:24;9.32;;;5.97;;
23519;SDS011;11936;50.820;4.336;2023-06-10T13:18:50;7.78;;;6.22;;
23519;SDS011;11936;50.820;4.336;2023-06-10T13:21:17;9.15;;;5.82;;
23519;SDS011;11936;50.820;4.336;2023-06-10T13:23:44;12.40;;;6.20;;
23519;SDS011;11936;50.820;4.336;2023-06-10T13:26:11;110.93;;;11.23;;
23519;SDS011;11936;50.820;4.336;2023-06-10T13:28:36;43.72;;;7.45;;
23519;SDS011;11936;50.820;4.336;2023-06-10T13:31:03;11.07;;;6.38;;
23519;SDS011;11936;50.820;4.336;2023-06-10T13:33:28;13.25;;;6.68;;
23519;SDS011;11936;50.820;4.336;2023-06-10T13:35:54;8.15;;;6.13;;
23519;SDS011;11936;50.820;4.336;2023-06-10T13:38:20;8.32;;;5.80;;
23519;SDS011;11936;50.820;4.336;2023-06-10T13:40:45;11.23;;;5.70;;
23519;SDS011;11936;50.820;4.336;2023-06-10T13:43:11;6.95;;;5.68;;
23519;SDS011;11936;50.820;4.336;2023-06-10T13:45:38;12.45;;;6.22;;
23519;SDS011;11936;50.820;4.336;2023-06-10T13:48:04;18.55;;;6.57;;
23519;SDS011;11936;50.820;4.336;2023-06-10T13:50:30;14.60;;;6.50;;
23519;SDS011;11936;50.820;4.336;2023-06-10T13:52:56;8.65;;;6.32;;
23519;SDS011;11936;50.820;4.336;2023-06-10T13:55:22;7.80;;;5.70;;
23519;SDS011;11936;50.820;4.336;2023-06-10T13:57:49;10.45;;;6.10;;
23519;SDS011;11936;50.820;4.336;2023-06-10T14:00:15;8.25;;;6.70;;
23519;SDS011;11936;50.820;4.336;2023-06-10T14:02:41;19.83;;;5.57;;
23519;SDS011;11936;50.820;4.336;2023-06-10T14:05:07;7.65;;;5.68;;
23519;SDS011;11936;50.820;4.336;2023-06-10T14:07:33;16.27;;;6.38;;
23519;SDS011;11936;50.820;4.336;2023-06-10T14:09:59;7.90;;;6.03;;
23519;SDS011;11936;50.820;4.336;2023-06-10T14:12:25;7.30;;;5.88;;
23519;SDS011;11936;50.820;4.336;2023-06-10T14:14:50;8.95;;;6.10;;
23519;SDS011;11936;50.820;4.336;2023-06-10T14:17:16;7.75;;;6.05;;
23519;SDS011;11936;50.820;4.336;2023-06-10T14:19:41;10.13;;;6.13;;
23519;SDS011;11936;50.820;4.336;2023-06-10T14:22:07;9.85;;;6.15;;
23519;SDS011;11936;50.820;4.336;2023-06-10T14:24:33;12.63;;;6.50;;
23519;SDS011;11936;50.820;4.336;2023-06-10T14:27:00;10.15;;;5.88;;
23519;SDS011;11936;50.820;4.336;2023-06-10T14:29:25;6.70;;;6.10;;
23519;SDS011;11936;50.820;4.336;2023-06-10T14:34:19;7.78;;;5.85;;
23519;SDS011;11936;50.820;4.336;2023-06-10T14:36:45;14.38;;;6.25;;
23519;SDS011;11936;50.820;4.336;2023-06-10T14:39:11;9.40;;;6.72;;
23519;SDS011;11936;50.820;4.336;2023-06-10T14:41:36;7.78;;;6.10;;
23519;SDS011;11936;50.820;4.336;2023-06-10T14:44:02;10.80;;;6.68;;
23519;SDS011;11936;50.820;4.336;2023-06-10T14:46:28;9.90;;;6.22;;
23519;SDS011;11936;50.820;4.336;2023-06-10T14:48:53;8.02;;;6.13;;
23519;SDS011;11936;50.820;4.336;2023-06-10T14:51:19;18.70;;;6.60;;
23519;SDS011;11936;50.820;4.336;2023-06-10T14:53:46;20.50;;;6.93;;
23519;SDS011;11936;50.820;4.336;2023-06-10T14:56:11;11.40;;;6.25;;
23519;SDS011;11936;50.820;4.336;2023-06-10T14:58:37;13.70;;;7.15;;
23519;SDS011;11936;50.820;4.336;2023-06-10T15:01:03;10.98;;;5.97;;
23519;SDS011;11936;50.820;4.336;2023-06-10T15:03:28;6.78;;;5.82;;
23519;SDS011;11936;50.820;4.336;2023-06-10T15:05:54;11.50;;;6.57;;
23519;SDS011;11936;50.820;4.336;2023-06-10T15:08:20;13.32;;;6.35;;